createdAt,value
2023-05-08T00:00:36.482Z,2.40
2023-05-08T00:03:03.613Z,2.67
2023-05-08T00:05:31.033Z,2.47
2023-05-08T00:08:01.511Z,2.50
2023-05-08T00:10:29.198Z,2.00
2023-05-08T00:12:56.695Z,2.33
2023-05-08T00:15:23.710Z,1.88
2023-05-08T00:17:50.554Z,2.00
2023-05-08T00:20:17.486Z,2.35
2023-05-08T00:22:44.452Z,5.47
2023-05-08T00:25:11.457Z,2.10
2023-05-08T00:27:38.449Z,2.30
2023-05-08T00:30:07.475Z,2.10
2023-05-08T00:32:34.347Z,2.03
2023-05-08T00:35:01.272Z,2.10
2023-05-08T00:37:28.131Z,2.05
2023-05-08T00:39:55.103Z,2.00
2023-05-08T00:42:21.997Z,1.90
2023-05-08T00:44:48.930Z,2.00
2023-05-08T00:47:15.873Z,1.98
2023-05-08T00:49:43.611Z,1.95
2023-05-08T00:52:10.691Z,2.53
2023-05-08T00:54:38.631Z,2.22
2023-05-08T00:57:08.670Z,2.00
2023-05-08T00:59:37.048Z,1.85
2023-05-08T01:02:05.094Z,2.35
2023-05-08T01:04:33.192Z,2.30
2023-05-08T01:07:02.081Z,2.25
2023-05-08T01:09:29.267Z,5.55
2023-05-08T01:11:59.178Z,3.00
2023-05-08T01:14:59.798Z,2.03
2023-05-08T01:17:48.035Z,2.30
2023-05-08T01:20:32.152Z,2.10
2023-05-08T01:23:07.972Z,2.03
2023-05-08T01:25:46.859Z,3.03
2023-05-08T01:28:47.961Z,1.98
2023-05-08T01:31:44.754Z,2.38
2023-05-08T01:34:19.978Z,2.53
2023-05-08T01:37:11.560Z,2.80
2023-05-08T01:40:18.394Z,3.03
2023-05-08T01:42:58.557Z,2.42
2023-05-08T01:45:31.157Z,2.53
2023-05-08T01:48:06.515Z,2.25
2023-05-08T01:50:38.482Z,2.65
2023-05-08T01:53:17.603Z,3.90
2023-05-08T01:55:47.291Z,2.17
2023-05-08T02:00:43.064Z,2.92
2023-05-08T02:03:12.094Z,2.03
2023-05-08T02:05:41.265Z,2.97
2023-05-08T02:08:14.028Z,2.78
2023-05-08T02:10:42.834Z,2.17
2023-05-08T02:13:11.430Z,2.05
2023-05-08T02:15:39.657Z,2.30
2023-05-08T02:21:00.846Z,2.13
2023-05-08T02:23:28.648Z,2.22
2023-05-08T02:25:56.693Z,2.08
2023-05-08T02:28:24.643Z,2.50
2023-05-08T02:30:52.751Z,3.42
2023-05-08T02:33:21.290Z,1.95
2023-05-08T02:35:50.615Z,3.15
2023-05-08T02:38:20.561Z,2.15
2023-05-08T02:40:55.550Z,2.78
2023-05-08T02:43:23.961Z,2.45
2023-05-08T02:46:27.756Z,2.63
2023-05-08T02:49:07.202Z,2.70
2023-05-08T02:51:50.938Z,2.90
2023-05-08T02:54:32.042Z,3.20
2023-05-08T02:57:27.524Z,2.78
2023-05-08T03:00:05.879Z,3.10
2023-05-08T03:02:57.424Z,3.03
2023-05-08T03:05:38.500Z,3.25
2023-05-08T03:08:14.196Z,4.60
2023-05-08T03:10:45.734Z,3.00
2023-05-08T03:13:15.024Z,3.13
2023-05-08T03:15:46.898Z,3.55
2023-05-08T03:18:19.650Z,4.43
2023-05-08T03:20:52.747Z,3.67
2023-05-08T03:23:23.254Z,3.85
2023-05-08T03:25:52.669Z,3.55
2023-05-08T03:28:21.562Z,3.80
2023-05-08T03:30:50.633Z,4.47
2023-05-08T03:33:18.141Z,3.40
2023-05-08T03:35:46.379Z,3.72
2023-05-08T03:38:13.718Z,3.63
2023-05-08T03:40:42.768Z,3.67
2023-05-08T03:43:12.028Z,3.75
2023-05-08T03:45:41.143Z,3.60
2023-05-08T03:48:09.928Z,3.25
2023-05-08T03:50:38.692Z,3.80
2023-05-08T03:53:08.602Z,3.75
2023-05-08T03:55:36.418Z,4.03
2023-05-08T03:58:57.030Z,4.30
2023-05-08T04:01:33.961Z,3.90
2023-05-08T04:04:11.168Z,6.10
2023-05-08T04:06:49.501Z,5.57
2023-05-08T04:09:27.211Z,4.03
2023-05-08T04:12:09.951Z,4.10
2023-05-08T04:14:47.792Z,4.00
2023-05-08T04:17:22.485Z,4.18
2023-05-08T04:19:55.727Z,4.53
2023-05-08T04:22:27.172Z,4.22
2023-05-08T04:24:58.131Z,3.75
2023-05-08T04:27:26.078Z,4.40
2023-05-08T04:29:54.275Z,7.03
2023-05-08T04:32:22.037Z,5.53
2023-05-08T04:34:49.992Z,4.38
2023-05-08T04:37:27.744Z,5.88
2023-05-08T04:39:57.526Z,4.05
2023-05-08T04:42:26.275Z,4.50
2023-05-08T04:44:55.250Z,4.78
2023-05-08T04:47:24.036Z,5.10
2023-05-08T04:49:51.561Z,4.68
2023-05-08T04:52:18.580Z,4.70
2023-05-08T04:54:45.518Z,4.53
2023-05-08T04:57:12.428Z,5.18
2023-05-08T04:59:39.503Z,5.28
2023-05-08T05:02:09.157Z,5.63
2023-05-08T05:04:36.878Z,5.03
2023-05-08T05:07:05.141Z,5.35
2023-05-08T05:09:36.889Z,5.88
2023-05-08T05:12:05.307Z,5.25
2023-05-08T05:14:32.757Z,5.40
2023-05-08T05:16:59.955Z,4.88
2023-05-08T05:19:27.163Z,5.15
2023-05-08T05:21:54.191Z,5.30
2023-05-08T05:24:21.174Z,4.97
2023-05-08T05:26:50.149Z,5.18
2023-05-08T05:29:17.565Z,4.97
2023-05-08T05:31:44.773Z,5.25
2023-05-08T05:34:11.766Z,5.20
2023-05-08T05:36:38.804Z,5.38
2023-05-08T05:39:05.818Z,5.78
2023-05-08T05:41:34.432Z,5.18
2023-05-08T05:44:01.668Z,5.32
2023-05-08T05:46:32.656Z,10.23
2023-05-08T05:49:02.346Z,5.55
2023-05-08T05:51:29.368Z,5.45
2023-05-08T05:53:57.297Z,5.90
2023-05-08T05:56:25.852Z,6.00
2023-05-08T05:58:52.751Z,5.82
2023-05-08T06:01:19.843Z,5.72
2023-05-08T06:03:47.632Z,5.60
2023-05-08T06:06:14.650Z,6.57
2023-05-08T06:08:41.638Z,6.15
2023-05-08T06:11:08.876Z,5.57
2023-05-08T06:13:36.251Z,5.75
2023-05-08T06:16:03.491Z,6.15
2023-05-08T06:18:30.906Z,6.78
2023-05-08T06:21:00.938Z,6.78
2023-05-08T06:23:27.847Z,6.60
2023-05-08T06:25:54.884Z,6.90
2023-05-08T06:28:23.957Z,6.70
2023-05-08T06:30:50.925Z,6.72
2023-05-08T06:33:18.217Z,7.03
2023-05-08T06:35:49.127Z,7.07
2023-05-08T06:38:16.497Z,6.85
2023-05-08T06:40:44.501Z,8.27
2023-05-08T06:43:12.383Z,7.25
2023-05-08T06:45:40.225Z,6.90
2023-05-08T06:48:07.765Z,7.20
2023-05-08T06:50:38.224Z,8.35
2023-05-08T06:53:05.681Z,7.05
2023-05-08T06:55:32.992Z,7.03
2023-05-08T06:57:59.901Z,5.75
2023-05-08T07:00:27.250Z,6.15
2023-05-08T07:02:54.369Z,5.97
2023-05-08T07:05:21.783Z,6.05
2023-05-08T07:07:50.644Z,6.10
2023-05-08T07:10:21.369Z,6.00
2023-05-08T07:12:49.394Z,6.05
2023-05-08T07:15:25.384Z,6.25
2023-05-08T07:17:54.360Z,6.05
2023-05-08T07:20:21.709Z,6.32
2023-05-08T07:22:48.963Z,6.43
2023-05-08T07:25:16.152Z,6.22
2023-05-08T07:27:43.152Z,8.35
2023-05-08T07:30:10.755Z,6.57
2023-05-08T07:32:39.406Z,6.10
2023-05-08T07:35:10.985Z,6.33
2023-05-08T07:37:39.786Z,6.45
2023-05-08T07:40:07.875Z,6.32
2023-05-08T07:42:48.211Z,6.72
2023-05-08T07:45:16.124Z,6.28
2023-05-08T07:47:54.687Z,6.90
2023-05-08T07:50:22.587Z,6.47
2023-05-08T07:52:50.464Z,6.97
2023-05-08T07:55:18.538Z,6.25
2023-05-08T07:57:46.256Z,6.93
2023-05-08T08:00:14.948Z,6.32
2023-05-08T08:02:43.575Z,6.85
2023-05-08T08:05:11.317Z,7.17
2023-05-08T08:07:38.750Z,6.65
2023-05-08T08:10:06.358Z,8.15
2023-05-08T08:12:33.323Z,6.45
2023-05-08T08:15:00.276Z,6.75
2023-05-08T08:17:28.923Z,6.68
2023-05-08T08:19:57.166Z,6.47
2023-05-08T08:22:24.953Z,6.25
2023-05-08T08:24:55.304Z,6.57
2023-05-08T08:27:22.808Z,5.97
2023-05-08T08:29:52.504Z,5.93
2023-05-08T08:32:25.725Z,6.15
2023-05-08T08:34:52.663Z,6.30
2023-05-08T08:37:19.687Z,7.55
2023-05-08T08:39:48.395Z,6.78
2023-05-08T08:42:15.670Z,6.20
2023-05-08T08:44:42.981Z,6.05
2023-05-08T08:47:14.233Z,6.20
2023-05-08T08:49:47.069Z,7.25
2023-05-08T08:52:27.224Z,6.88
2023-05-08T08:54:56.789Z,6.68
2023-05-08T08:57:27.594Z,6.47
2023-05-08T08:59:55.615Z,7.28
2023-05-08T09:02:23.590Z,6.65
2023-05-08T09:04:50.908Z,7.15
2023-05-08T09:07:18.547Z,6.32
2023-05-08T09:09:46.404Z,6.78
2023-05-08T09:12:14.620Z,6.82
2023-05-08T09:14:41.752Z,6.88
2023-05-08T09:17:09.444Z,6.85
2023-05-08T09:19:36.801Z,6.72
2023-05-08T09:22:06.832Z,6.53
2023-05-08T09:24:59.774Z,6.88
2023-05-08T09:27:31.540Z,6.70
2023-05-08T09:30:01.912Z,6.97
2023-05-08T09:32:30.550Z,7.35
2023-05-08T09:34:58.045Z,7.68
2023-05-08T09:37:26.121Z,7.22
2023-05-08T09:39:53.688Z,7.68
2023-05-08T09:42:21.662Z,8.20
2023-05-08T09:44:53.654Z,8.32
2023-05-08T09:47:25.404Z,9.05
2023-05-08T09:50:02.386Z,8.00
2023-05-08T09:52:30.606Z,7.82
2023-05-08T09:55:05.669Z,7.70
2023-05-08T09:57:34.395Z,8.35
2023-05-08T10:00:21.943Z,8.00
2023-05-08T10:02:57.015Z,7.88
2023-05-08T10:05:36.519Z,7.65
2023-05-08T10:08:23.769Z,7.65
2023-05-08T10:10:51.249Z,7.38
2023-05-08T10:13:18.153Z,7.78
2023-05-08T10:15:45.812Z,7.60
2023-05-08T10:18:14.458Z,7.60
2023-05-08T10:20:44.455Z,7.28
2023-05-08T10:23:15.706Z,7.63
2023-05-08T10:25:47.423Z,7.57
2023-05-08T10:28:27.919Z,7.65
2023-05-08T10:30:57.973Z,8.07
2023-05-08T10:33:31.213Z,7.43
2023-05-08T10:35:59.804Z,7.82
2023-05-08T10:38:27.457Z,7.25
2023-05-08T10:40:58.176Z,7.53
2023-05-08T10:43:25.848Z,6.97
2023-05-08T10:45:54.994Z,6.88
2023-05-08T10:48:46.960Z,6.80
2023-05-08T10:51:28.629Z,6.75
2023-05-08T10:54:34.481Z,6.60
2023-05-08T10:57:12.112Z,7.07
2023-05-08T10:59:39.475Z,7.00
2023-05-08T11:02:09.630Z,6.50
2023-05-08T11:04:36.930Z,6.82
2023-05-08T11:07:05.031Z,6.55
2023-05-08T11:09:41.872Z,6.15
2023-05-08T11:12:27.817Z,7.03
2023-05-08T11:15:06.505Z,6.60
2023-05-08T11:17:34.180Z,6.80
2023-05-08T11:20:05.966Z,6.65
2023-05-08T11:22:37.057Z,10.35
2023-05-08T11:25:10.518Z,6.50
2023-05-08T11:28:01.919Z,6.72
2023-05-08T11:30:39.858Z,6.88
2023-05-08T11:33:07.196Z,6.22
2023-05-08T11:35:45.018Z,6.80
2023-05-08T11:38:22.064Z,6.45
2023-05-08T11:40:56.348Z,6.38
2023-05-08T11:43:38.386Z,7.70
2023-05-08T11:46:08.644Z,6.85
2023-05-08T11:48:36.195Z,8.13
2023-05-08T11:51:04.098Z,6.85
2023-05-08T11:53:31.433Z,7.40
2023-05-08T11:56:02.210Z,8.02
2023-05-08T11:58:29.406Z,7.50
2023-05-08T12:00:56.440Z,6.75
2023-05-08T12:03:25.471Z,6.32
2023-05-08T12:05:56.641Z,6.35
2023-05-08T12:08:24.326Z,7.10
2023-05-08T12:10:56.907Z,6.93
2023-05-08T12:13:25.167Z,6.57
2023-05-08T12:15:55.813Z,7.05
2023-05-08T12:18:24.145Z,6.55
2023-05-08T12:20:59.233Z,6.93
2023-05-08T12:23:27.303Z,7.25
2023-05-08T12:25:55.320Z,6.90
2023-05-08T12:28:22.996Z,7.82
2023-05-08T12:30:50.489Z,7.90
2023-05-08T12:33:18.604Z,7.72
2023-05-08T12:35:45.755Z,8.27
2023-05-08T12:38:13.727Z,8.13
2023-05-08T12:40:43.871Z,7.45
2023-05-08T12:43:11.478Z,7.68
2023-05-08T12:45:40.438Z,7.57
2023-05-08T12:48:13.043Z,7.33
2023-05-08T12:50:41.760Z,8.38
2023-05-08T12:53:13.160Z,8.13
2023-05-08T12:55:52.792Z,7.85
2023-05-08T13:00:50.237Z,6.88
2023-05-08T13:03:28.686Z,8.00
2023-05-08T13:05:57.929Z,7.90
2023-05-08T13:08:31.617Z,7.78
2023-05-08T13:11:00.190Z,8.90
2023-05-08T13:13:30.351Z,7.35
2023-05-08T13:15:57.560Z,7.78
2023-05-08T13:18:27.631Z,8.63
2023-05-08T13:20:56.163Z,8.20
2023-05-08T13:23:23.856Z,7.47
2023-05-08T13:25:51.321Z,7.32
2023-05-08T13:28:18.364Z,7.78
2023-05-08T13:30:45.408Z,9.00
2023-05-08T13:33:12.343Z,7.82
2023-05-08T13:35:39.540Z,8.55
2023-05-08T13:38:06.562Z,8.25
2023-05-08T13:40:33.824Z,7.90
2023-05-08T13:43:00.684Z,7.75
2023-05-08T13:45:27.834Z,6.80
2023-05-08T13:47:54.969Z,8.05
2023-05-08T13:50:22.524Z,7.40
2023-05-08T13:52:51.077Z,8.13
2023-05-08T13:55:22.282Z,8.15
2023-05-08T13:57:51.944Z,7.53
2023-05-08T14:00:19.926Z,7.68
2023-05-08T14:02:47.116Z,8.00
2023-05-08T14:05:15.484Z,7.45
2023-05-08T14:07:43.678Z,8.18
2023-05-08T14:10:10.878Z,8.35
2023-05-08T14:12:37.860Z,8.07
2023-05-08T14:15:05.820Z,8.73
2023-05-08T14:17:32.884Z,8.32
2023-05-08T14:19:59.895Z,8.30
2023-05-08T14:22:26.781Z,7.90
2023-05-08T14:24:53.820Z,8.48
2023-05-08T14:27:21.110Z,8.55
2023-05-08T14:29:48.218Z,14.43
2023-05-08T14:32:15.129Z,7.95
2023-05-08T14:34:42.345Z,9.73
2023-05-08T14:37:09.400Z,8.35
2023-05-08T14:39:36.357Z,9.68
2023-05-08T14:44:33.403Z,8.88
2023-05-08T14:47:00.906Z,7.97
2023-05-08T14:49:36.659Z,8.30
2023-05-08T14:52:06.227Z,7.60
2023-05-08T14:54:33.734Z,8.65
2023-05-08T14:57:01.042Z,8.38
2023-05-08T14:59:27.958Z,9.10
2023-05-08T15:01:55.452Z,8.85
2023-05-08T15:04:23.466Z,8.73
2023-05-08T15:06:50.794Z,8.45
2023-05-08T15:09:18.023Z,9.52
2023-05-08T15:11:45.082Z,8.80
2023-05-08T15:14:11.989Z,8.35
2023-05-08T15:16:39.092Z,8.85
2023-05-08T15:19:06.041Z,9.50
2023-05-08T15:21:32.883Z,9.70
2023-05-08T15:23:59.927Z,9.05
2023-05-08T15:26:27.129Z,9.00
2023-05-08T15:28:54.099Z,9.45
2023-05-08T15:31:22.003Z,8.90
2023-05-08T15:33:49.072Z,8.60
2023-05-08T15:36:16.056Z,8.57
2023-05-08T15:38:43.382Z,10.65
2023-05-08T15:41:14.780Z,9.27
2023-05-08T15:43:43.078Z,9.50
2023-05-08T15:46:10.445Z,9.35
2023-05-08T15:48:37.805Z,9.32
2023-05-08T15:51:04.985Z,8.55
2023-05-08T15:53:33.980Z,8.93
2023-05-08T15:56:01.012Z,9.82
2023-05-08T15:58:28.210Z,8.98
2023-05-08T16:00:57.011Z,9.48
2023-05-08T16:03:26.357Z,9.60
2023-05-08T16:05:56.646Z,9.40
2023-05-08T16:08:23.965Z,11.52
2023-05-08T16:10:51.176Z,9.98
2023-05-08T16:13:18.294Z,10.07
2023-05-08T16:15:45.806Z,9.23
2023-05-08T16:18:12.822Z,9.82
2023-05-08T16:20:43.102Z,9.73
2023-05-08T16:23:10.413Z,10.32
2023-05-08T16:25:37.382Z,9.80
2023-05-08T16:28:04.320Z,9.93
2023-05-08T16:30:31.446Z,10.00
2023-05-08T16:32:58.493Z,10.32
2023-05-08T16:35:25.744Z,9.93
2023-05-08T16:37:52.829Z,9.73
2023-05-08T16:40:19.967Z,10.30
2023-05-08T16:42:47.139Z,9.55
2023-05-08T16:45:14.881Z,9.90
2023-05-08T16:47:45.818Z,10.10
2023-05-08T16:50:13.467Z,10.40
2023-05-08T16:52:40.857Z,9.90
2023-05-08T16:55:09.677Z,9.60
2023-05-08T16:57:37.016Z,10.23
2023-05-08T17:00:07.766Z,9.88
2023-05-08T17:02:35.086Z,10.43
2023-05-08T17:05:03.070Z,10.80
2023-05-08T17:07:30.349Z,12.45
2023-05-08T17:09:58.300Z,11.02
2023-05-08T17:12:26.062Z,10.93
2023-05-08T17:14:53.057Z,11.70
2023-05-08T17:17:20.577Z,10.52
2023-05-08T17:19:47.903Z,10.63
2023-05-08T17:22:15.894Z,12.07
2023-05-08T17:24:43.275Z,10.93
2023-05-08T17:27:15.437Z,10.65
2023-05-08T17:29:42.373Z,13.25
2023-05-08T17:35:06.934Z,12.27
2023-05-08T17:37:33.883Z,11.43
2023-05-08T17:40:00.974Z,10.70
2023-05-08T17:42:27.884Z,11.68
2023-05-08T17:44:54.804Z,11.75
2023-05-08T17:47:21.762Z,11.13
2023-05-08T17:49:48.911Z,11.65
2023-05-08T17:52:16.137Z,12.18
2023-05-08T17:54:43.150Z,12.45
2023-05-08T17:57:10.241Z,12.55
2023-05-08T17:59:37.108Z,12.27
2023-05-08T18:02:04.276Z,12.43
2023-05-08T18:04:31.607Z,11.77
2023-05-08T18:07:01.469Z,11.05
2023-05-08T18:09:28.747Z,12.10
2023-05-08T18:12:02.257Z,12.75
2023-05-08T18:14:33.054Z,13.35
2023-05-08T18:17:00.828Z,11.65
2023-05-08T18:19:28.209Z,11.25
2023-05-08T18:22:22.512Z,11.73
2023-05-08T18:24:50.177Z,12.30
2023-05-08T18:27:17.020Z,11.40
2023-05-08T18:30:06.243Z,12.45
2023-05-08T18:36:26.365Z,13.20
2023-05-08T18:39:29.619Z,11.10
2023-05-08T18:45:54.806Z,11.13
2023-05-08T18:48:24.884Z,11.15
2023-05-08T18:50:52.197Z,10.93
2023-05-08T18:53:19.681Z,10.63
2023-05-08T18:55:47.004Z,10.32
2023-05-08T18:58:13.921Z,10.13
2023-05-08T19:00:41.074Z,10.20
2023-05-08T19:03:08.213Z,11.40
2023-05-08T19:05:41.244Z,11.82
2023-05-08T19:10:49.533Z,11.40
2023-05-08T19:13:16.539Z,10.63
2023-05-08T19:15:43.518Z,11.23
2023-05-08T19:18:10.665Z,11.30
2023-05-08T19:20:37.700Z,10.55
2023-05-08T19:23:04.767Z,10.77
2023-05-08T19:25:32.001Z,10.85
2023-05-08T19:27:59.397Z,11.27
2023-05-08T19:30:26.648Z,11.15
2023-05-08T19:32:53.604Z,10.52
2023-05-08T19:35:21.223Z,11.25
2023-05-08T19:37:48.267Z,10.93
2023-05-08T19:40:16.646Z,10.13
2023-05-08T19:42:45.745Z,11.60
2023-05-08T19:45:12.979Z,11.13
2023-05-08T19:47:39.963Z,11.93
2023-05-08T19:50:07.666Z,11.60
2023-05-08T19:52:34.815Z,11.50
2023-05-08T19:55:01.975Z,11.82
2023-05-08T19:57:28.884Z,11.63
2023-05-08T19:59:56.239Z,12.75
2023-05-08T20:02:23.315Z,12.70
2023-05-08T20:05:14.417Z,11.30
2023-05-08T20:07:37.372Z,13.95
2023-05-08T20:10:04.624Z,11.82
2023-05-08T20:12:31.794Z,11.52
2023-05-08T20:14:58.733Z,12.30
2023-05-08T20:17:25.608Z,11.88
2023-05-08T20:19:52.559Z,12.07
2023-05-08T20:22:19.625Z,11.73
2023-05-08T20:24:46.571Z,12.52
2023-05-08T20:27:13.460Z,13.18
2023-05-08T20:29:40.656Z,12.68
2023-05-08T20:32:08.309Z,12.18
2023-05-08T20:34:35.366Z,12.55
2023-05-08T20:37:03.889Z,12.30
2023-05-08T20:39:30.814Z,11.75
2023-05-08T20:41:57.838Z,12.43
2023-05-08T20:44:24.693Z,13.00
2023-05-08T20:46:51.828Z,12.10
2023-05-08T20:49:18.922Z,11.55
2023-05-08T20:51:45.813Z,10.90
2023-05-08T20:54:13.053Z,10.05
2023-05-08T20:56:40.028Z,10.93
2023-05-08T20:59:06.969Z,11.25
2023-05-08T21:01:34.000Z,10.90
2023-05-08T21:04:01.115Z,10.90
2023-05-08T21:06:28.072Z,12.05
2023-05-08T21:08:55.069Z,13.13
2023-05-08T21:11:22.029Z,13.20
2023-05-08T21:13:49.034Z,13.35
2023-05-08T21:16:16.165Z,13.32
2023-05-08T21:18:43.205Z,13.55
2023-05-08T21:21:17.161Z,13.90
2023-05-08T21:23:44.144Z,12.95
2023-05-08T21:26:11.043Z,12.95
2023-05-08T21:28:38.226Z,13.75
2023-05-08T21:31:06.002Z,12.98
2023-05-08T21:33:33.859Z,13.15
2023-05-08T21:36:01.116Z,12.88
2023-05-08T21:38:28.044Z,13.63
2023-05-08T21:40:55.772Z,12.80
2023-05-08T21:43:22.720Z,13.13
2023-05-08T21:45:49.594Z,12.20
2023-05-08T21:48:16.585Z,11.65
2023-05-08T21:50:43.497Z,13.27
2023-05-08T21:53:10.851Z,12.55
2023-05-08T21:55:37.761Z,12.38
2023-05-08T21:58:04.837Z,12.70
2023-05-08T22:00:31.797Z,12.77
2023-05-08T22:02:59.023Z,13.27
2023-05-08T22:05:26.126Z,14.32
2023-05-08T22:07:53.080Z,12.60
2023-05-08T22:10:21.625Z,12.95
2023-05-08T22:12:49.989Z,14.25
2023-05-08T22:15:28.900Z,14.38
2023-05-08T22:17:58.019Z,14.05
2023-05-08T22:20:25.455Z,15.30
2023-05-08T22:22:52.435Z,14.18
2023-05-08T22:25:21.790Z,12.07
2023-05-08T22:27:49.484Z,12.02
2023-05-08T22:30:35.604Z,11.85
2023-05-08T22:33:02.772Z,12.38
2023-05-08T22:35:34.886Z,11.88
2023-05-08T22:38:07.737Z,11.25
2023-05-08T22:40:44.107Z,11.93
2023-05-08T22:43:48.168Z,11.32
2023-05-08T22:46:22.271Z,12.18
2023-05-08T22:48:53.236Z,11.85
2023-05-08T22:51:20.828Z,12.10
2023-05-08T22:53:47.745Z,12.75
2023-05-08T22:56:14.669Z,13.20
2023-05-08T22:58:41.778Z,11.85
2023-05-08T23:01:08.987Z,12.88
2023-05-08T23:03:36.327Z,11.05
2023-05-08T23:06:03.395Z,10.60
2023-05-08T23:08:30.514Z,11.35
2023-05-08T23:10:57.619Z,12.35
2023-05-08T23:13:24.767Z,11.90
2023-05-08T23:15:51.706Z,12.65
2023-05-08T23:18:18.803Z,12.63
2023-05-08T23:20:45.777Z,12.07
2023-05-08T23:23:12.800Z,12.48
2023-05-08T23:25:39.792Z,13.60
2023-05-08T23:28:07.063Z,12.50
2023-05-08T23:30:34.222Z,12.27
2023-05-08T23:33:01.681Z,12.77
2023-05-08T23:35:28.844Z,13.45
2023-05-08T23:37:56.129Z,14.65
2023-05-08T23:40:23.226Z,14.45
2023-05-08T23:42:52.127Z,14.50
2023-05-08T23:45:19.105Z,18.97
2023-05-08T23:47:46.604Z,14.80
2023-05-08T23:50:16.649Z,14.90
2023-05-08T23:52:43.628Z,14.60
2023-05-08T23:55:11.084Z,14.27
2023-05-08T23:57:38.162Z,14.00
